createdAt,value
2017-12-10T00:00:32.673Z,999.64
2017-12-10T00:01:32.575Z,999.63
2017-12-10T00:02:32.483Z,999.62
2017-12-10T00:03:32.405Z,999.55
2017-12-10T00:04:32.299Z,999.54
2017-12-10T00:05:32.226Z,999.55
2017-12-10T00:06:32.121Z,999.54
2017-12-10T00:07:32.030Z,999.48
2017-12-10T00:08:31.944Z,999.49
2017-12-10T00:09:31.856Z,999.44
2017-12-10T00:10:31.762Z,999.46
2017-12-10T00:11:31.677Z,999.48
2017-12-10T00:12:31.579Z,999.41
2017-12-10T00:13:31.482Z,999.41
2017-12-10T00:14:31.391Z,999.41
2017-12-10T00:15:31.322Z,999.37
2017-12-10T00:16:31.223Z,999.36
2017-12-10T00:17:31.128Z,999.34
2017-12-10T00:18:31.025Z,999.34
2017-12-10T00:19:30.949Z,999.38
2017-12-10T00:20:30.849Z,999.34
2017-12-10T00:21:30.759Z,999.33
2017-12-10T00:22:30.667Z,999.33
2017-12-10T00:23:30.575Z,999.29
2017-12-10T00:24:30.481Z,999.28
2017-12-10T00:25:30.400Z,999.21
2017-12-10T00:26:30.314Z,999.24
2017-12-10T00:27:30.222Z,999.19
2017-12-10T00:28:30.246Z,999.17
2017-12-10T00:29:30.034Z,999.15
2017-12-10T00:30:29.936Z,999.09
2017-12-10T00:31:29.846Z,999.05
2017-12-10T00:32:29.755Z,999.01
2017-12-10T00:33:29.666Z,998.96
2017-12-10T00:34:29.571Z,998.94
2017-12-10T00:35:29.483Z,998.96
2017-12-10T00:36:29.404Z,998.90
2017-12-10T00:37:29.315Z,998.86
2017-12-10T00:38:29.215Z,998.84
2017-12-10T00:39:29.118Z,998.76
2017-12-10T00:40:29.056Z,998.71
2017-12-10T00:41:28.940Z,998.69
2017-12-10T00:42:28.849Z,998.62
2017-12-10T00:43:28.759Z,998.60
2017-12-10T00:44:28.668Z,998.57
2017-12-10T00:45:28.575Z,998.57
2017-12-10T00:46:28.491Z,998.57
2017-12-10T00:47:28.412Z,998.52
2017-12-10T00:48:28.311Z,998.46
2017-12-10T00:49:28.218Z,998.40
2017-12-10T00:50:28.119Z,998.35
2017-12-10T00:51:28.025Z,998.29
2017-12-10T00:52:27.930Z,998.27
2017-12-10T00:53:27.849Z,998.27
2017-12-10T00:54:27.748Z,998.29
2017-12-10T00:55:27.662Z,998.23
2017-12-10T00:56:27.573Z,998.19
2017-12-10T00:57:27.478Z,998.17
2017-12-10T00:58:27.408Z,998.19
2017-12-10T00:59:27.304Z,998.15
2017-12-10T01:00:27.206Z,998.10
2017-12-10T01:01:27.120Z,998.12
2017-12-10T01:02:27.024Z,998.05
2017-12-10T01:03:26.933Z,998.05
2017-12-10T01:04:26.839Z,998.05
2017-12-10T01:05:26.748Z,998.01
2017-12-10T01:06:26.661Z,998.02
2017-12-10T01:07:26.571Z,998.00
2017-12-10T01:08:26.475Z,997.94
2017-12-10T01:09:26.403Z,997.91
2017-12-10T01:10:26.300Z,997.90
2017-12-10T01:11:26.207Z,997.87
2017-12-10T01:12:26.111Z,997.83
2017-12-10T01:13:26.019Z,997.77
2017-12-10T01:14:25.932Z,997.78
2017-12-10T01:15:25.839Z,997.83
2017-12-10T01:16:25.749Z,997.78
2017-12-10T01:17:25.655Z,997.81
2017-12-10T01:18:25.564Z,997.78
2017-12-10T01:19:25.474Z,997.71
2017-12-10T01:20:25.388Z,997.73
2017-12-10T01:21:25.310Z,997.73
2017-12-10T01:22:25.201Z,997.74
2017-12-10T01:23:25.112Z,997.74
2017-12-10T01:24:25.018Z,997.78
2017-12-10T01:25:24.929Z,997.76
2017-12-10T01:26:24.835Z,997.75
2017-12-10T01:27:24.829Z,997.73
2017-12-10T01:28:24.667Z,997.69
2017-12-10T01:29:24.559Z,997.72
2017-12-10T01:30:24.482Z,997.70
2017-12-10T01:31:24.382Z,997.72
2017-12-10T01:32:24.302Z,997.65
2017-12-10T01:33:24.198Z,997.69
2017-12-10T01:34:24.113Z,997.74
2017-12-10T01:35:24.019Z,997.68
2017-12-10T01:36:23.931Z,997.68
2017-12-10T01:37:23.836Z,997.65
2017-12-10T01:38:23.744Z,997.67
2017-12-10T01:39:23.656Z,997.67
2017-12-10T01:40:23.578Z,997.64
2017-12-10T01:41:23.478Z,997.62
2017-12-10T01:42:23.387Z,997.61
2017-12-10T01:43:23.303Z,997.56
2017-12-10T01:44:23.206Z,997.53
2017-12-10T01:45:23.110Z,997.53
2017-12-10T01:46:23.015Z,997.53
2017-12-10T01:47:22.922Z,997.48
2017-12-10T01:48:22.842Z,997.46
2017-12-10T01:49:22.755Z,997.49
2017-12-10T01:50:22.657Z,997.43
2017-12-10T01:51:22.563Z,997.43
2017-12-10T01:52:22.472Z,997.44
2017-12-10T01:53:22.382Z,997.42
2017-12-10T01:54:22.292Z,997.39
2017-12-10T01:55:22.200Z,997.37
2017-12-10T01:56:22.111Z,997.37
2017-12-10T01:57:22.018Z,997.38
2017-12-10T01:58:21.924Z,997.34
2017-12-10T01:59:21.832Z,997.36
2017-12-10T02:00:21.743Z,997.31
2017-12-10T02:01:21.648Z,997.33
2017-12-10T02:02:21.564Z,997.27
2017-12-10T02:03:21.473Z,997.27
2017-12-10T02:04:21.374Z,997.26
2017-12-10T02:05:21.287Z,997.19
2017-12-10T02:06:21.198Z,997.21
2017-12-10T02:07:21.104Z,997.20
2017-12-10T02:08:21.012Z,997.11
2017-12-10T02:09:20.915Z,997.13
2017-12-10T02:10:20.867Z,997.12
2017-12-10T02:11:20.744Z,997.13
2017-12-10T02:12:20.641Z,997.12
2017-12-10T02:13:20.557Z,997.10
2017-12-10T02:14:20.470Z,997.10
2017-12-10T02:15:20.376Z,997.12
2017-12-10T02:16:20.277Z,997.10
2017-12-10T02:17:20.191Z,997.05
2017-12-10T02:18:20.100Z,997.01
2017-12-10T02:19:20.012Z,997.00
2017-12-10T02:20:19.912Z,996.99
2017-12-10T02:21:19.832Z,996.96
2017-12-10T02:22:19.736Z,996.91
2017-12-10T02:23:19.640Z,996.89
2017-12-10T02:24:19.549Z,996.89
2017-12-10T02:25:19.464Z,996.80
2017-12-10T02:26:19.424Z,996.76
2017-12-10T02:27:19.282Z,996.82
2017-12-10T02:28:19.186Z,996.73
2017-12-10T02:29:19.153Z,996.71
2017-12-10T02:30:19.004Z,996.72
2017-12-10T02:31:18.914Z,996.65
2017-12-10T02:32:18.824Z,996.60
2017-12-10T02:33:18.731Z,996.54
2017-12-10T02:34:18.646Z,996.49
2017-12-10T02:35:18.543Z,996.44
2017-12-10T02:36:18.453Z,996.49
2017-12-10T02:37:18.372Z,996.46
2017-12-10T02:38:18.276Z,996.41
2017-12-10T02:39:18.192Z,996.37
2017-12-10T02:40:18.092Z,996.32
2017-12-10T02:41:18.008Z,996.35
2017-12-10T02:42:17.924Z,996.32
2017-12-10T02:43:17.841Z,996.25
2017-12-10T02:44:17.735Z,996.20
2017-12-10T02:45:17.648Z,996.18
2017-12-10T02:46:17.586Z,996.19
2017-12-10T02:47:17.469Z,996.21
2017-12-10T02:48:17.374Z,996.17
2017-12-10T02:49:17.306Z,996.10
2017-12-10T02:50:17.191Z,996.10
2017-12-10T02:51:17.096Z,996.05
2017-12-10T02:52:17.008Z,996.02
2017-12-10T02:53:16.926Z,995.99
2017-12-10T02:54:16.833Z,995.92
2017-12-10T02:55:16.746Z,995.84
2017-12-10T02:56:16.652Z,995.76
2017-12-10T02:57:16.559Z,995.76
2017-12-10T02:58:16.467Z,995.74
2017-12-10T02:59:16.381Z,995.73
2017-12-10T03:00:16.291Z,995.69
2017-12-10T03:01:16.205Z,995.71
2017-12-10T03:02:16.109Z,995.66
2017-12-10T03:03:16.032Z,995.60
2017-12-10T03:04:15.936Z,995.55
2017-12-10T03:05:15.849Z,995.52
2017-12-10T03:06:15.756Z,995.54
2017-12-10T03:07:15.662Z,995.54
2017-12-10T03:08:15.590Z,995.54
2017-12-10T03:09:15.484Z,995.54
2017-12-10T03:10:15.395Z,995.49
2017-12-10T03:11:15.303Z,995.47
2017-12-10T03:12:15.214Z,995.50
2017-12-10T03:13:15.127Z,995.48
2017-12-10T03:14:15.042Z,995.49
2017-12-10T03:15:14.942Z,995.48
2017-12-10T03:16:14.858Z,995.51
2017-12-10T03:17:14.772Z,995.45
2017-12-10T03:18:14.670Z,995.47
2017-12-10T03:19:14.597Z,995.46
2017-12-10T03:20:14.499Z,995.43
2017-12-10T03:21:14.427Z,995.37
2017-12-10T03:22:14.320Z,995.34
2017-12-10T03:23:14.233Z,995.35
2017-12-10T03:24:14.147Z,995.33
2017-12-10T03:25:14.212Z,995.23
2017-12-10T03:26:13.962Z,995.23
2017-12-10T03:27:13.869Z,995.17
2017-12-10T03:28:13.785Z,995.20
2017-12-10T03:29:13.691Z,995.16
2017-12-10T03:30:13.602Z,995.16
2017-12-10T03:31:13.514Z,995.12
2017-12-10T03:32:13.429Z,995.10
2017-12-10T03:33:13.386Z,995.12
2017-12-10T03:34:13.241Z,995.04
2017-12-10T03:35:13.155Z,995.05
2017-12-10T03:36:13.064Z,995.10
2017-12-10T03:37:12.977Z,995.09
2017-12-10T03:38:12.899Z,995.06
2017-12-10T03:39:12.798Z,995.02
2017-12-10T03:40:12.708Z,995.00
2017-12-10T03:41:12.613Z,995.00
2017-12-10T03:42:12.523Z,994.96
2017-12-10T03:43:12.457Z,994.94
2017-12-10T03:44:12.345Z,994.90
2017-12-10T03:45:12.259Z,994.89
2017-12-10T03:46:12.163Z,994.84
2017-12-10T03:47:12.079Z,994.83
2017-12-10T03:48:11.989Z,994.81
2017-12-10T03:49:11.897Z,994.77
2017-12-10T03:50:11.804Z,994.79
2017-12-10T03:51:11.709Z,994.72
2017-12-10T03:52:11.622Z,994.73
2017-12-10T03:53:11.535Z,994.71
2017-12-10T03:54:11.447Z,994.65
2017-12-10T03:55:11.394Z,994.61
2017-12-10T03:56:11.265Z,994.57
2017-12-10T03:57:11.179Z,994.52
2017-12-10T03:58:11.096Z,994.52
2017-12-10T03:59:10.995Z,994.48
2017-12-10T04:00:10.905Z,994.47
2017-12-10T04:01:10.813Z,994.41
2017-12-10T04:02:10.730Z,994.36
2017-12-10T04:03:10.635Z,994.34
2017-12-10T04:04:10.547Z,994.30
2017-12-10T04:05:10.461Z,994.26
2017-12-10T04:06:10.367Z,994.22
2017-12-10T04:07:10.275Z,994.14
2017-12-10T04:08:10.184Z,994.12
2017-12-10T04:09:10.104Z,994.08
2017-12-10T04:10:10.013Z,994.05
2017-12-10T04:11:09.916Z,994.05
2017-12-10T04:12:09.829Z,994.01
2017-12-10T04:13:09.746Z,994.02
2017-12-10T04:14:09.653Z,994.00
2017-12-10T04:15:09.559Z,993.98
2017-12-10T04:16:09.470Z,993.95
2017-12-10T04:17:09.378Z,993.95
2017-12-10T04:18:09.292Z,993.86
2017-12-10T04:19:09.192Z,993.84
2017-12-10T04:20:09.109Z,993.82
2017-12-10T04:21:09.018Z,993.80
2017-12-10T04:22:08.937Z,993.77
2017-12-10T04:23:08.840Z,993.72
2017-12-10T04:24:08.778Z,993.73
2017-12-10T04:25:08.652Z,993.68
2017-12-10T04:26:08.568Z,993.68
2017-12-10T04:27:08.492Z,993.66
2017-12-10T04:28:08.395Z,993.60
2017-12-10T04:29:08.307Z,993.59
2017-12-10T04:30:08.211Z,993.54
2017-12-10T04:31:08.124Z,993.53
2017-12-10T04:32:08.032Z,993.44
2017-12-10T04:33:07.937Z,993.41
2017-12-10T04:34:07.854Z,993.45
2017-12-10T04:35:07.763Z,993.39
2017-12-10T04:36:07.670Z,993.38
2017-12-10T04:37:07.591Z,993.40
2017-12-10T04:38:07.491Z,993.35
2017-12-10T04:39:07.404Z,993.32
2017-12-10T04:40:07.321Z,993.33
2017-12-10T04:41:07.223Z,993.28
2017-12-10T04:42:07.130Z,993.33
2017-12-10T04:43:07.043Z,993.30
2017-12-10T04:44:06.958Z,993.28
2017-12-10T04:45:06.866Z,993.27
2017-12-10T04:46:06.771Z,993.21
2017-12-10T04:47:06.680Z,993.17
2017-12-10T04:48:06.594Z,993.14
2017-12-10T04:49:06.512Z,993.11
2017-12-10T04:50:06.413Z,993.09
2017-12-10T04:51:06.320Z,993.07
2017-12-10T04:52:06.232Z,993.08
2017-12-10T04:53:06.142Z,993.04
2017-12-10T04:54:06.046Z,993.03
2017-12-10T04:55:05.959Z,992.98
2017-12-10T04:56:05.865Z,993.00
2017-12-10T04:57:05.780Z,992.98
2017-12-10T04:58:05.687Z,992.94
2017-12-10T04:59:05.602Z,992.96
2017-12-10T05:00:05.504Z,992.91
2017-12-10T05:01:05.415Z,992.89
2017-12-10T05:02:05.325Z,992.85
2017-12-10T05:03:05.245Z,992.84
2017-12-10T05:04:05.142Z,992.82
2017-12-10T05:05:05.056Z,992.76
2017-12-10T05:06:04.961Z,992.81
2017-12-10T05:07:04.880Z,992.76
2017-12-10T05:08:04.781Z,992.74
2017-12-10T05:09:04.695Z,992.70
2017-12-10T05:10:04.602Z,992.69
2017-12-10T05:11:04.515Z,992.69
2017-12-10T05:12:04.424Z,992.70
2017-12-10T05:13:04.332Z,992.64
2017-12-10T05:14:04.249Z,992.61
2017-12-10T05:15:04.152Z,992.58
2017-12-10T05:16:04.077Z,992.53
2017-12-10T05:17:03.973Z,992.49
2017-12-10T05:18:03.887Z,992.47
2017-12-10T05:19:03.792Z,992.44
2017-12-10T05:20:03.701Z,992.42
2017-12-10T05:21:03.621Z,992.33
2017-12-10T05:22:03.531Z,992.31
2017-12-10T05:23:03.435Z,992.27
2017-12-10T05:24:03.342Z,992.29
2017-12-10T05:25:03.257Z,992.24
2017-12-10T05:26:03.162Z,992.23
2017-12-10T05:27:03.068Z,992.16
2017-12-10T05:28:02.982Z,992.13
2017-12-10T05:29:02.898Z,992.07
2017-12-10T05:30:02.807Z,992.06
2017-12-10T05:31:02.716Z,991.99
2017-12-10T05:32:02.635Z,991.95
2017-12-10T05:33:02.532Z,991.93
2017-12-10T05:34:02.439Z,991.87
2017-12-10T05:35:02.352Z,991.84
2017-12-10T05:36:02.269Z,991.77
2017-12-10T05:37:02.176Z,991.77
2017-12-10T05:38:02.080Z,991.69
2017-12-10T05:39:01.993Z,991.69
2017-12-10T05:40:01.911Z,991.66
2017-12-10T05:41:01.818Z,991.67
2017-12-10T05:42:01.725Z,991.65
2017-12-10T05:43:01.630Z,991.63
2017-12-10T05:44:01.548Z,991.62
2017-12-10T05:45:01.448Z,991.66
2017-12-10T05:46:01.360Z,991.54
2017-12-10T05:47:01.275Z,991.52
2017-12-10T05:48:01.180Z,991.48
2017-12-10T05:49:01.095Z,991.47
2017-12-10T05:50:01.001Z,991.42
2017-12-10T05:51:00.916Z,991.38
2017-12-10T05:52:00.825Z,991.34
2017-12-10T05:53:01.679Z,991.33
2017-12-10T05:54:00.653Z,991.32
2017-12-10T05:55:00.553Z,991.27
2017-12-10T05:56:00.472Z,991.22
2017-12-10T05:57:00.376Z,991.21
2017-12-10T05:58:00.278Z,991.17
2017-12-10T05:59:00.188Z,991.11
2017-12-10T06:00:00.105Z,991.04
2017-12-10T06:01:00.015Z,991.05
2017-12-10T06:01:59.921Z,991.01
2017-12-10T06:02:59.827Z,991.02
2017-12-10T06:03:59.745Z,990.98
2017-12-10T06:04:59.649Z,991.00
2017-12-10T06:05:59.558Z,991.01
2017-12-10T06:06:59.479Z,990.95
2017-12-10T06:07:59.381Z,990.91
2017-12-10T06:08:59.293Z,990.91
2017-12-10T06:09:59.207Z,990.85
2017-12-10T06:10:59.109Z,990.79
2017-12-10T06:11:59.022Z,990.73
2017-12-10T06:12:58.931Z,990.69
2017-12-10T06:13:58.836Z,990.66
2017-12-10T06:14:58.749Z,990.60
2017-12-10T06:15:58.661Z,990.57
2017-12-10T06:16:58.573Z,990.51
2017-12-10T06:17:58.480Z,990.51
2017-12-10T06:18:58.396Z,990.46
2017-12-10T06:19:58.309Z,990.42
2017-12-10T06:20:58.215Z,990.39
2017-12-10T06:21:58.121Z,990.37
2017-12-10T06:22:58.032Z,990.31
2017-12-10T06:23:57.942Z,990.26
2017-12-10T06:24:57.849Z,990.21
2017-12-10T06:25:57.761Z,990.19
2017-12-10T06:26:57.670Z,990.12
2017-12-10T06:27:57.585Z,990.04
2017-12-10T06:28:57.493Z,989.97
2017-12-10T06:29:57.400Z,989.90
2017-12-10T06:30:57.312Z,989.81
2017-12-10T06:31:57.220Z,989.72
2017-12-10T06:32:57.137Z,989.66
2017-12-10T06:33:57.045Z,989.59
2017-12-10T06:34:56.954Z,989.52
2017-12-10T06:35:56.860Z,989.46
2017-12-10T06:36:56.776Z,989.35
2017-12-10T06:37:56.681Z,989.24
2017-12-10T06:38:56.597Z,989.13
2017-12-10T06:39:56.507Z,989.03
2017-12-10T06:40:56.410Z,988.98
2017-12-10T06:41:56.321Z,988.88
2017-12-10T06:42:56.234Z,988.82
2017-12-10T06:43:56.144Z,988.77
2017-12-10T06:44:56.065Z,988.76
2017-12-10T06:45:55.963Z,988.64
2017-12-10T06:46:55.870Z,988.59
2017-12-10T06:47:55.788Z,988.57
2017-12-10T06:48:55.688Z,988.54
2017-12-10T06:49:55.600Z,988.50
2017-12-10T06:50:55.505Z,988.51
2017-12-10T06:51:56.240Z,988.44
2017-12-10T06:52:55.334Z,988.50
2017-12-10T06:53:55.242Z,988.45
2017-12-10T06:54:55.150Z,988.43
2017-12-10T06:55:55.063Z,988.40
2017-12-10T06:56:54.974Z,988.39
2017-12-10T06:57:54.881Z,988.36
2017-12-10T06:58:54.787Z,988.34
2017-12-10T06:59:54.696Z,988.33
2017-12-10T07:00:54.611Z,988.30
2017-12-10T07:01:54.527Z,988.29
2017-12-10T07:02:54.438Z,988.27
2017-12-10T07:03:54.334Z,988.18
2017-12-10T07:04:54.254Z,988.20
2017-12-10T07:05:54.163Z,988.15
2017-12-10T07:06:54.062Z,988.11
2017-12-10T07:07:53.977Z,988.09
2017-12-10T07:08:53.889Z,988.07
2017-12-10T07:09:53.792Z,987.98
2017-12-10T07:10:53.704Z,987.96
2017-12-10T07:11:53.608Z,987.92
2017-12-10T07:12:53.528Z,987.86
2017-12-10T07:13:53.427Z,987.75
2017-12-10T07:14:53.344Z,987.71
2017-12-10T07:15:53.254Z,987.69
2017-12-10T07:16:53.162Z,987.67
2017-12-10T07:17:53.070Z,987.62
2017-12-10T07:18:52.979Z,987.59
2017-12-10T07:19:52.889Z,987.53
2017-12-10T07:20:52.798Z,987.46
2017-12-10T07:21:52.718Z,987.41
2017-12-10T07:22:52.614Z,987.40
2017-12-10T07:23:52.536Z,987.38
2017-12-10T07:24:52.441Z,987.37
2017-12-10T07:25:52.347Z,987.35
2017-12-10T07:26:52.256Z,987.28
2017-12-10T07:27:52.175Z,987.18
2017-12-10T07:28:52.083Z,987.08
2017-12-10T07:29:51.989Z,987.04
2017-12-10T07:30:51.895Z,987.06
2017-12-10T07:31:51.800Z,987.03
2017-12-10T07:32:51.712Z,986.99
2017-12-10T07:33:51.639Z,986.89
2017-12-10T07:34:51.540Z,986.82
2017-12-10T07:35:51.443Z,986.82
2017-12-10T07:36:51.354Z,986.78
2017-12-10T07:37:51.268Z,986.71
2017-12-10T07:38:51.172Z,986.59
2017-12-10T07:39:51.086Z,986.48
2017-12-10T07:40:50.997Z,986.42
2017-12-10T07:41:50.901Z,986.42
2017-12-10T07:42:50.813Z,986.41
2017-12-10T07:43:50.728Z,986.39
2017-12-10T07:44:50.634Z,986.30
2017-12-10T07:45:50.553Z,986.24
2017-12-10T07:46:50.455Z,986.16
2017-12-10T07:47:50.368Z,986.05
2017-12-10T07:48:50.274Z,986.00
2017-12-10T07:49:50.185Z,985.91
2017-12-10T07:50:50.837Z,985.88
2017-12-10T07:51:50.008Z,985.85
2017-12-10T07:52:49.916Z,985.83
2017-12-10T07:53:49.819Z,985.84
2017-12-10T07:54:49.733Z,985.80
2017-12-10T07:55:49.650Z,985.75
2017-12-10T07:56:49.557Z,985.68
2017-12-10T07:57:49.462Z,985.75
2017-12-10T07:58:49.369Z,985.76
2017-12-10T07:59:49.282Z,985.73
2017-12-10T08:00:49.188Z,985.63
2017-12-10T08:01:49.099Z,985.51
2017-12-10T08:02:49.015Z,985.35
2017-12-10T08:03:48.919Z,985.20
2017-12-10T08:04:48.831Z,985.14
2017-12-10T08:05:48.744Z,985.20
2017-12-10T08:06:48.643Z,985.23
2017-12-10T08:07:48.557Z,985.22
2017-12-10T08:08:48.463Z,985.15
2017-12-10T08:09:48.371Z,985.09
2017-12-10T08:10:48.279Z,985.07
2017-12-10T08:11:48.193Z,984.99
2017-12-10T08:12:48.110Z,984.94
2017-12-10T08:13:48.019Z,984.96
2017-12-10T08:14:47.924Z,984.93
2017-12-10T08:15:47.831Z,984.86
2017-12-10T08:16:47.737Z,984.81
2017-12-10T08:17:47.650Z,984.83
2017-12-10T08:18:47.555Z,984.78
2017-12-10T08:19:47.471Z,984.78
2017-12-10T08:20:47.405Z,984.83
2017-12-10T08:21:47.284Z,984.80
2017-12-10T08:22:47.192Z,984.84
2017-12-10T08:23:47.100Z,984.86
2017-12-10T08:24:47.014Z,984.90
2017-12-10T08:25:46.926Z,984.97
2017-12-10T08:26:46.830Z,984.90
2017-12-10T08:27:46.735Z,984.83
2017-12-10T08:28:46.648Z,984.76
2017-12-10T08:29:46.570Z,984.62
2017-12-10T08:30:46.472Z,984.62
2017-12-10T08:31:46.373Z,984.58
2017-12-10T08:32:46.280Z,984.57
2017-12-10T08:33:46.187Z,984.56
2017-12-10T08:34:46.093Z,984.59
2017-12-10T08:35:46.003Z,984.63
2017-12-10T08:36:45.907Z,984.56
2017-12-10T08:37:45.827Z,984.52
2017-12-10T08:38:45.731Z,984.52
2017-12-10T08:39:45.633Z,984.53
2017-12-10T08:40:45.544Z,984.56
2017-12-10T08:41:45.453Z,984.53
2017-12-10T08:42:45.358Z,984.51
2017-12-10T08:43:45.271Z,984.44
2017-12-10T08:44:45.193Z,984.40
2017-12-10T08:45:45.083Z,984.37
2017-12-10T08:46:44.991Z,984.37
2017-12-10T08:47:44.899Z,984.29
2017-12-10T08:48:44.812Z,984.24
2017-12-10T08:49:45.418Z,984.17
2017-12-10T08:50:44.625Z,984.10
2017-12-10T08:51:44.534Z,984.08
2017-12-10T08:52:44.441Z,983.93
2017-12-10T08:53:44.351Z,983.94
2017-12-10T08:54:44.275Z,983.88
2017-12-10T08:55:44.178Z,983.86
2017-12-10T08:56:44.080Z,983.77
2017-12-10T08:57:43.986Z,983.71
2017-12-10T08:58:43.891Z,983.67
2017-12-10T08:59:43.813Z,983.66
2017-12-10T09:00:43.717Z,983.56
2017-12-10T09:01:43.617Z,983.43
2017-12-10T09:02:43.530Z,983.34
2017-12-10T09:03:43.435Z,983.28
2017-12-10T09:04:43.351Z,983.19
2017-12-10T09:05:43.256Z,983.13
2017-12-10T09:06:43.167Z,983.11
2017-12-10T09:07:43.091Z,983.08
2017-12-10T09:08:42.976Z,983.10
2017-12-10T09:09:42.892Z,983.04
2017-12-10T09:10:42.792Z,983.06
2017-12-10T09:11:42.703Z,983.01
2017-12-10T09:12:42.614Z,983.00
2017-12-10T09:13:42.522Z,982.92
2017-12-10T09:14:42.434Z,982.85
2017-12-10T09:15:42.341Z,982.82
2017-12-10T09:16:42.258Z,982.79
2017-12-10T09:17:42.158Z,982.59
2017-12-10T09:18:42.065Z,982.51
2017-12-10T09:19:42.021Z,982.49
2017-12-10T09:20:41.880Z,982.40
2017-12-10T09:21:41.789Z,982.36
2017-12-10T09:22:41.709Z,982.35
2017-12-10T09:23:41.602Z,982.28
2017-12-10T09:24:41.539Z,982.18
2017-12-10T09:25:41.440Z,982.16
2017-12-10T09:26:41.334Z,982.17
2017-12-10T09:27:41.238Z,982.14
2017-12-10T09:28:41.144Z,982.10
2017-12-10T09:29:41.058Z,981.99
2017-12-10T09:30:40.960Z,981.89
2017-12-10T09:31:40.864Z,981.86
2017-12-10T09:32:40.778Z,981.69
2017-12-10T09:33:40.679Z,981.65
2017-12-10T09:34:40.593Z,981.57
2017-12-10T09:35:40.503Z,981.58
2017-12-10T09:36:40.420Z,981.58
2017-12-10T09:37:40.302Z,981.43
2017-12-10T09:38:40.216Z,981.36
2017-12-10T09:39:40.162Z,981.30
2017-12-10T09:40:40.038Z,981.43
2017-12-10T09:41:39.962Z,981.21
2017-12-10T09:42:39.841Z,981.19
2017-12-10T09:43:39.757Z,981.23
2017-12-10T09:44:39.653Z,981.18
2017-12-10T09:45:39.586Z,981.16
2017-12-10T09:46:39.484Z,981.09
2017-12-10T09:47:39.374Z,981.07
2017-12-10T09:48:40.020Z,981.02
2017-12-10T09:49:39.186Z,980.88
2017-12-10T09:50:39.103Z,980.91
2017-12-10T09:51:39.001Z,980.84
2017-12-10T09:52:38.926Z,980.87
2017-12-10T09:53:38.820Z,980.86
2017-12-10T09:54:38.733Z,980.83
2017-12-10T09:55:38.620Z,980.78
2017-12-10T09:56:38.531Z,980.77
2017-12-10T09:57:38.436Z,980.63
2017-12-10T09:58:38.341Z,980.67
2017-12-10T09:59:38.250Z,980.72
2017-12-10T10:00:38.156Z,980.57
2017-12-10T10:01:38.068Z,980.41
2017-12-10T10:02:37.968Z,980.51
2017-12-10T10:03:37.873Z,980.40
2017-12-10T10:04:37.808Z,980.26
2017-12-10T10:05:37.752Z,980.25
2017-12-10T10:06:37.599Z,980.14
2017-12-10T10:07:37.491Z,980.09
2017-12-10T10:08:37.424Z,980.07
2017-12-10T10:09:37.411Z,980.00
2017-12-10T10:10:37.209Z,979.80
2017-12-10T10:11:37.110Z,979.79
2017-12-10T10:12:37.060Z,979.79
2017-12-10T10:13:36.958Z,979.65
2017-12-10T10:14:36.847Z,979.52
2017-12-10T10:15:36.741Z,979.49
2017-12-10T10:16:36.726Z,979.31
2017-12-10T10:17:36.572Z,979.25
2017-12-10T10:18:36.456Z,979.23
2017-12-10T10:19:36.365Z,979.16
2017-12-10T10:20:36.314Z,979.03
2017-12-10T10:21:36.194Z,978.99
2017-12-10T10:22:36.082Z,978.87
2017-12-10T10:23:36.026Z,978.79
2017-12-10T10:24:35.919Z,978.76
2017-12-10T10:25:35.824Z,978.67
2017-12-10T10:26:35.742Z,978.61
2017-12-10T10:27:35.624Z,978.63
2017-12-10T10:28:35.530Z,978.70
2017-12-10T10:29:35.423Z,978.62
2017-12-10T10:30:35.433Z,978.52
2017-12-10T10:31:35.237Z,978.57
2017-12-10T10:32:35.189Z,978.42
2017-12-10T10:33:35.059Z,978.51
2017-12-10T10:34:34.989Z,978.26
2017-12-10T10:35:34.869Z,978.13
2017-12-10T10:36:34.817Z,978.02
2017-12-10T10:37:34.685Z,977.95
2017-12-10T10:38:34.590Z,977.81
2017-12-10T10:39:34.524Z,977.84
2017-12-10T10:40:34.507Z,977.71
2017-12-10T10:41:34.304Z,977.67
2017-12-10T10:42:34.360Z,977.65
2017-12-10T10:43:34.119Z,977.55
2017-12-10T10:44:34.026Z,977.55
2017-12-10T10:45:33.925Z,977.58
2017-12-10T10:46:33.836Z,977.52
2017-12-10T10:47:34.633Z,977.47
2017-12-10T10:48:33.701Z,977.42
2017-12-10T10:49:33.569Z,977.27
2017-12-10T10:50:33.486Z,977.20
2017-12-10T10:51:33.368Z,977.13
2017-12-10T10:52:33.339Z,977.06
2017-12-10T10:53:33.225Z,976.97
2017-12-10T10:54:33.081Z,976.84
2017-12-10T10:55:33.014Z,976.69
2017-12-10T10:56:32.896Z,976.50
2017-12-10T10:57:32.807Z,976.41
2017-12-10T10:58:32.710Z,976.36
2017-12-10T10:59:32.619Z,976.31
2017-12-10T11:00:32.523Z,976.22
2017-12-10T11:01:32.437Z,976.14
2017-12-10T11:02:32.339Z,976.15
2017-12-10T11:03:32.256Z,976.06
2017-12-10T11:04:32.165Z,976.09
2017-12-10T11:05:32.099Z,976.03
2017-12-10T11:06:31.966Z,976.12
2017-12-10T11:07:31.902Z,975.89
2017-12-10T11:08:31.799Z,975.78
2017-12-10T11:09:31.688Z,975.78
2017-12-10T11:10:31.599Z,975.80
2017-12-10T11:11:31.503Z,975.63
2017-12-10T11:12:31.410Z,975.64
2017-12-10T11:13:31.314Z,975.63
2017-12-10T11:14:31.217Z,975.60
2017-12-10T11:15:31.125Z,975.56
2017-12-10T11:16:31.038Z,975.57
2017-12-10T11:17:30.939Z,975.46
2017-12-10T11:18:30.867Z,975.42
2017-12-10T11:19:30.754Z,975.37
2017-12-10T11:20:30.662Z,975.25
2017-12-10T11:21:30.566Z,975.17
2017-12-10T11:22:30.472Z,975.24
2017-12-10T11:23:30.375Z,975.10
2017-12-10T11:24:30.284Z,975.08
2017-12-10T11:25:30.202Z,975.09
2017-12-10T11:26:30.104Z,975.07
2017-12-10T11:27:30.003Z,975.04
2017-12-10T11:28:29.910Z,974.96
2017-12-10T11:29:29.817Z,975.02
2017-12-10T11:30:29.736Z,974.97
2017-12-10T11:31:29.633Z,974.88
2017-12-10T11:32:29.536Z,974.81
2017-12-10T11:33:29.445Z,974.85
2017-12-10T11:34:29.395Z,974.77
2017-12-10T11:35:29.256Z,974.72
2017-12-10T11:36:29.172Z,974.65
2017-12-10T11:37:29.089Z,974.71
2017-12-10T11:38:28.985Z,974.62
2017-12-10T11:39:28.897Z,974.58
2017-12-10T11:40:28.799Z,974.62
2017-12-10T11:41:28.702Z,974.55
2017-12-10T11:42:28.613Z,974.53
2017-12-10T11:43:28.523Z,974.60
2017-12-10T11:44:28.420Z,974.57
2017-12-10T11:45:28.339Z,974.52
2017-12-10T11:46:29.168Z,974.52
2017-12-10T11:47:28.150Z,974.55
2017-12-10T11:48:28.061Z,974.59
2017-12-10T11:49:27.966Z,974.57
2017-12-10T11:50:27.874Z,974.63
2017-12-10T11:51:27.779Z,974.57
2017-12-10T11:52:27.694Z,974.56
2017-12-10T11:53:27.592Z,974.50
2017-12-10T11:54:27.505Z,974.49
2017-12-10T11:55:27.417Z,974.48
2017-12-10T11:56:27.320Z,974.42
2017-12-10T11:57:27.246Z,974.38
2017-12-10T11:58:27.141Z,974.46
2017-12-10T11:59:27.049Z,974.42
2017-12-10T12:00:26.969Z,974.34
2017-12-10T12:01:26.868Z,974.31
2017-12-10T12:02:26.773Z,974.23
2017-12-10T12:03:26.676Z,974.23
2017-12-10T12:04:26.587Z,974.24
2017-12-10T12:05:26.507Z,974.27
2017-12-10T12:06:26.404Z,974.22
2017-12-10T12:07:26.315Z,974.12
2017-12-10T12:08:26.226Z,974.11
2017-12-10T12:09:26.142Z,974.08
2017-12-10T12:10:26.039Z,974.07
2017-12-10T12:11:25.951Z,974.09
2017-12-10T12:12:25.859Z,974.05
2017-12-10T12:13:25.753Z,973.98
2017-12-10T12:14:25.665Z,973.95
2017-12-10T12:15:25.579Z,973.90
2017-12-10T12:16:25.484Z,973.85
2017-12-10T12:17:25.396Z,973.81
2017-12-10T12:18:25.294Z,973.79
2017-12-10T12:19:25.211Z,973.72
2017-12-10T12:20:25.115Z,973.73
2017-12-10T12:21:25.028Z,973.63
2017-12-10T12:22:24.937Z,973.63
2017-12-10T12:23:24.855Z,973.60
2017-12-10T12:24:24.751Z,973.60
2017-12-10T12:25:24.660Z,973.55
2017-12-10T12:26:24.562Z,973.49
2017-12-10T12:27:24.472Z,973.50